Pagina principală
METAR-TAF:

METAR-TAF

Aeroporturi :

Tarvisio, Italia

Latitudine: 46-30N, longitudine: 013-35E, elevație: 777 m

Observații meteo curente

Raportul a fost făcut în urmă cu 1 oră și 19 de minute, la 07:55 UTC
Vânt calm
Temperatură 23°C
Umiditate 73%
Presiune 1019 hPa
Vizibilitate de 10 km sau mai mult
Nori împrăștiați la o înălțime de 3000 picior

METAR: LIVO 170755Z 00000KT 9999 SCT030 23/18 Q1019 RMK BKN BKN200 VIS MIN 9999

Ora: 11:14 (09:14 UTC)


TAF: lipsă

Observații și prognoze meteo pentru peste 4.000 de aeroporturi (rapoarte METAR și TAF).

Stațiile disponibile sunt reprezentate pe hartă prin puncte galbene și roșii.

Țineți indicatorul mouse-ului pe punctul dorit pentru a vedea denumirea stației.

Apoi, faceți clic pentru a vedea observațiile și prognozele meteorologice.

Pentru a schimba harta: Pentru mărire, faceți clic pe butoanele verzi cu cruce neagră; pentru micșorare, pe butonul verde cu o liniuță; pentru hărți învecinate, pe săgețile verzi.


METAR-TAF: